Time;durP1;ratioP1;P1;durP2;ratioP2;P2;SDS_P1;SDS_P2;PMS_P1;PMS_P2;Temp;Humidity;BMP_temperature;BMP_pressure;BME280_temperature;BME280_humidity;BME280_pressure;Samples;Min_cycle;Max_cycle;Signal;HPM_P1;HPM_P2
2022/03/22 00:01:50;;;;;;;12.82;9.23;;;11.30;36.20;;;;;;4996144;28;20085;-87
2022/03/22 00:04:17;;;;;;;11.20;8.43;;;11.30;35.30;;;;;;4985477;28;20137;-86
2022/03/22 00:06:43;;;;;;;15.15;9.50;;;11.20;36.40;;;;;;4997165;28;20494;-84
2022/03/22 00:09:09;;;;;;;15.75;8.55;;;11.20;35.70;;;;;;5008623;28;20048;-86
2022/03/22 00:11:35;;;;;;;18.40;10.23;;;11.20;35.60;;;;;;4997866;28;20038;-86
2022/03/22 00:14:01;;;;;;;17.15;10.38;;;11.20;36.50;;;;;;5003175;28;20565;-86
2022/03/22 00:16:27;;;;;;;19.80;10.13;;;10.90;36.10;;;;;;4993992;28;20037;-84
2022/03/22 00:18:52;;;;;;;14.05;9.35;;;10.80;36.80;;;;;;5006489;28;20034;-85
2022/03/22 00:21:19;;;;;;;14.35;10.40;;;10.70;37.00;;;;;;5004014;28;20615;-84
2022/03/22 00:23:47;;;;;;;16.75;10.77;;;10.80;37.30;;;;;;4983375;28;20046;-86
2022/03/22 00:26:13;;;;;;;13.77;10.00;;;10.60;37.50;;;;;;4989531;28;20038;-84
2022/03/22 00:28:39;;;;;;;15.10;10.15;;;10.70;37.20;;;;;;4988761;28;20050;-84
2022/03/22 00:31:05;;;;;;;21.75;12.02;;;10.60;36.90;;;;;;4994828;28;20109;-84
2022/03/22 00:33:31;;;;;;;15.90;10.40;;;10.60;38.20;;;;;;4984640;28;20137;-84
2022/03/22 00:35:57;;;;;;;21.02;11.88;;;10.50;38.40;;;;;;4994646;28;20048;-85
2022/03/22 00:38:23;;;;;;;19.60;10.73;;;10.40;38.20;;;;;;4984435;28;20065;-85
2022/03/22 00:40:49;;;;;;;19.65;12.07;;;10.40;37.70;;;;;;5004477;28;20490;-85
2022/03/22 00:43:15;;;;;;;18.35;12.43;;;10.30;38.80;;;;;;4996325;28;20038;-85
2022/03/22 00:45:41;;;;;;;17.02;12.95;;;10.10;38.10;;;;;;5020896;28;20054;-83
2022/03/22 00:48:13;;;;;;;17.15;11.18;;;10.00;38.60;;;;;;4991715;28;20401;-83
2022/03/22 00:50:42;;;;;;;21.15;12.55;;;10.00;38.90;;;;;;5003162;28;20453;-83
2022/03/22 00:53:08;;;;;;;18.27;12.32;;;10.10;39.30;;;;;;4989167;28;20092;-83
2022/03/22 00:55:36;;;;;;;18.60;14.40;;;10.00;38.70;;;;;;5004971;28;20121;-83
2022/03/22 00:58:03;;;;;;;24.77;16.25;;;9.90;39.10;;;;;;5000678;28;20053;-82
2022/03/22 01:00:29;;;;;;;20.35;13.25;;;9.70;39.10;;;;;;5012312;28;20045;-82
2022/03/22 01:02:58;;;;;;;24.30;15.05;;;9.70;39.10;;;;;;5004937;28;20040;-83
2022/03/22 01:05:24;;;;;;;20.58;13.82;;;9.60;39.90;;;;;;4998030;28;20435;-83
2022/03/22 01:07:54;;;;;;;26.25;15.73;;;9.70;39.60;;;;;;4987124;28;20483;-83
2022/03/22 01:10:22;;;;;;;25.58;14.68;;;9.70;39.70;;;;;;5001805;28;20029;-82
2022/03/22 01:12:48;;;;;;;22.17;15.88;;;9.70;39.70;;;;;;5002482;28;20034;-82
2022/03/22 01:15:20;;;;;;;22.38;15.13;;;9.60;39.20;;;;;;5016403;28;21058;-83
2022/03/22 01:17:48;;;;;;;25.77;15.43;;;9.70;39.30;;;;;;5014052;28;20049;-83
2022/03/22 01:20:16;;;;;;;21.10;15.25;;;9.70;39.00;;;;;;4990000;28;20039;-83
2022/03/22 01:22:45;;;;;;;19.98;13.82;;;9.60;38.90;;;;;;5006685;28;20038;-83
2022/03/22 01:25:17;;;;;;;19.33;14.43;;;9.70;38.70;;;;;;5010258;28;20038;-82
2022/03/22 01:27:46;;;;;;;26.92;14.90;;;9.70;38.20;;;;;;4998158;28;20442;-82
2022/03/22 01:30:13;;;;;;;24.48;15.90;;;9.70;37.20;;;;;;5010152;28;20041;-81
2022/03/22 01:32:39;;;;;;;22.98;15.18;;;9.60;38.10;;;;;;5008062;28;20045;-81
2022/03/22 01:35:08;;;;;;;21.42;16.02;;;9.60;37.70;;;;;;4989236;28;20053;-85
2022/03/22 01:37:35;;;;;;;20.23;14.60;;;9.60;37.90;;;;;;4998389;28;20045;-85
2022/03/22 01:40:01;;;;;;;21.35;14.00;;;9.50;37.50;;;;;;5003159;28;20116;-85
2022/03/22 01:42:27;;;;;;;28.55;14.43;;;9.50;36.70;;;;;;5010440;28;20073;-85
2022/03/22 01:44:53;;;;;;;25.52;14.27;;;9.50;37.70;;;;;;5013299;28;20061;-83
2022/03/22 01:47:22;;;;;;;23.88;14.98;;;9.50;37.30;;;;;;4996225;28;20038;-84
2022/03/22 01:49:50;;;;;;;20.10;12.53;;;9.60;37.00;;;;;;5005612;28;20046;-84
2022/03/22 01:52:19;;;;;;;19.13;12.82;;;9.70;36.60;;;;;;5011555;28;20142;-84
2022/03/22 01:54:51;;;;;;;19.38;12.68;;;9.70;36.40;;;;;;5013127;28;20037;-83
2022/03/22 01:57:22;;;;;;;16.80;11.13;;;9.80;36.50;;;;;;5004571;28;20529;-84
2022/03/22 01:59:49;;;;;;;21.30;13.13;;;9.80;35.50;;;;;;5013567;28;20120;-84
2022/03/22 02:07:48;;;;;;;17.27;12.20;;;9.80;35.10;;;;;;5017890;28;20087;-84
2022/03/22 02:10:14;;;;;;;18.00;13.27;;;9.70;35.50;;;;;;5011145;28;20041;-84
2022/03/22 02:12:41;;;;;;;19.15;13.07;;;9.70;35.70;;;;;;5000086;28;20038;-84
2022/03/22 02:15:07;;;;;;;18.30;12.82;;;9.50;36.20;;;;;;5012740;28;20391;-84
2022/03/22 02:17:34;;;;;;;17.60;12.73;;;9.60;36.20;;;;;;5017711;28;20050;-84
2022/03/22 02:20:01;;;;;;;23.67;14.18;;;9.50;35.90;;;;;;5014749;28;20073;-84
2022/03/22 02:22:37;;;;;;;15.75;11.90;;;9.40;36.50;;;;;;5013341;28;20041;-85
2022/03/22 02:25:04;;;;;;;19.30;13.38;;;9.40;36.40;;;;;;5000944;28;20038;-84
2022/03/22 02:27:34;;;;;;;14.25;11.80;;;9.40;36.40;;;;;;5005221;28;20056;-85
2022/03/22 02:30:00;;;;;;;18.80;12.95;;;9.40;36.50;;;;;;5008823;28;20031;-85
2022/03/22 02:32:25;;;;;;;15.70;10.95;;;9.30;35.90;;;;;;5001273;28;20041;-84
2022/03/22 02:34:51;;;;;;;16.05;11.00;;;9.30;36.00;;;;;;5001131;28;20050;-85
2022/03/22 02:37:17;;;;;;;17.65;11.88;;;9.30;35.70;;;;;;5002357;28;20462;-84
2022/03/22 02:39:44;;;;;;;14.60;11.02;;;9.30;36.40;;;;;;5020102;28;20038;-85
2022/03/22 02:42:10;;;;;;;15.65;11.35;;;9.30;35.30;;;;;;5013051;28;20552;-85
2022/03/22 02:44:36;;;;;;;17.60;11.40;;;9.20;35.70;;;;;;5001974;28;20033;-85
2022/03/22 02:47:03;;;;;;;20.20;13.32;;;9.20;35.80;;;;;;5011897;28;20065;-85
2022/03/22 02:49:31;;;;;;;18.63;11.52;;;9.10;35.90;;;;;;4996532;28;20049;-85
2022/03/22 02:51:57;;;;;;;14.85;10.70;;;9.00;35.30;;;;;;5004386;28;20030;-84
2022/03/22 02:54:22;;;;;;;16.02;10.88;;;9.00;35.80;;;;;;4999693;28;20040;-83
2022/03/22 02:56:48;;;;;;;16.27;11.35;;;9.00;34.80;;;;;;4997212;28;20042;-85
2022/03/22 02:59:14;;;;;;;14.77;11.02;;;9.00;35.40;;;;;;5015888;28;20041;-85
2022/03/22 03:01:39;;;;;;;14.90;10.20;;;9.00;34.90;;;;;;5013350;28;20042;-84
2022/03/22 03:04:05;;;;;;;16.27;9.85;;;9.00;35.10;;;;;;5004957;28;20042;-84
2022/03/22 03:06:31;;;;;;;15.00;11.00;;;9.00;35.00;;;;;;5005555;28;20057;-84
2022/03/22 03:08:59;;;;;;;13.68;9.82;;;9.00;35.00;;;;;;5010941;28;20458;-84
2022/03/22 03:11:28;;;;;;;12.57;9.68;;;9.00;35.00;;;;;;5009174;28;20061;-83
2022/03/22 03:16:42;;;;;;;11.77;8.52;;;9.10;35.00;;;;;;5010142;28;20042;-83
2022/03/22 03:19:07;;;;;;;12.55;10.35;;;9.20;34.60;;;;;;5010284;28;20637;-84
2022/03/22 03:21:34;;;;;;;19.77;10.43;;;9.10;34.70;;;;;;5007251;28;20030;-84
2022/03/22 03:24:00;;;;;;;15.57;10.32;;;9.00;34.50;;;;;;5008502;28;20052;-84
2022/03/22 03:26:26;;;;;;;15.98;10.95;;;8.90;34.80;;;;;;5011316;28;20482;-84
2022/03/22 03:28:52;;;;;;;16.77;10.00;;;8.90;35.20;;;;;;5008784;28;20046;-84
2022/03/22 03:31:18;;;;;;;19.55;10.95;;;8.80;35.40;;;;;;5006585;28;20026;-85
2022/03/22 03:33:44;;;;;;;20.17;10.52;;;8.80;35.90;;;;;;5002393;28;20029;-84
2022/03/22 03:36:09;;;;;;;19.88;11.32;;;8.70;36.00;;;;;;4997883;28;20038;-84
2022/03/22 03:38:41;;;;;;;18.85;11.15;;;8.70;36.30;;;;;;4977856;28;20057;-83
2022/03/22 03:43:56;;;;;;;15.75;9.30;;;8.70;36.00;;;;;;5003343;28;20516;-83
2022/03/22 03:49:07;;;;;;;19.00;10.45;;;8.70;36.10;;;;;;5007783;28;20383;-83
2022/03/22 03:51:38;;;;;;;12.73;9.35;;;8.70;36.30;;;;;;4992704;28;20414;-83
2022/03/22 03:54:04;;;;;;;15.02;9.43;;;8.80;36.50;;;;;;4999810;28;20053;-82
2022/03/22 03:56:30;;;;;;;20.88;10.48;;;8.80;36.40;;;;;;5004940;28;20061;-82
2022/03/22 03:58:57;;;;;;;14.50;9.63;;;8.80;35.90;;;;;;4979665;28;20052;-84
2022/03/22 04:01:25;;;;;;;17.33;9.68;;;8.70;36.40;;;;;;4997745;28;20054;-82
2022/03/22 04:03:51;;;;;;;20.65;9.75;;;8.60;36.70;;;;;;4992095;28;20053;-82
2022/03/22 04:06:16;;;;;;;22.05;10.63;;;8.60;36.30;;;;;;4981656;28;20034;-82
2022/03/22 04:08:42;;;;;;;16.13;9.73;;;8.50;36.90;;;;;;4978632;28;20092;-85
2022/03/22 04:11:08;;;;;;;15.80;9.90;;;8.50;36.20;;;;;;4985812;28;20035;-84
2022/03/22 04:13:35;;;;;;;17.13;10.32;;;8.40;36.20;;;;;;4995811;28;20037;-85
2022/03/22 04:16:01;;;;;;;16.67;9.95;;;8.40;36.90;;;;;;4977506;28;20410;-84
2022/03/22 04:18:27;;;;;;;14.35;9.65;;;8.50;36.80;;;;;;4982927;28;20045;-84
2022/03/22 04:20:52;;;;;;;14.05;9.25;;;8.50;36.90;;;;;;4978476;28;20739;-84
2022/03/22 04:23:18;;;;;;;16.45;10.23;;;8.50;37.10;;;;;;4983804;28;20065;-84
2022/03/22 04:25:44;;;;;;;13.30;9.32;;;8.50;37.10;;;;;;4990747;28;20037;-84
2022/03/22 04:33:37;;;;;;;11.75;8.82;;;8.30;37.00;;;;;;5004086;28;20081;-83
2022/03/22 04:36:04;;;;;;;13.80;9.07;;;8.30;37.70;;;;;;4997465;28;20050;-82
2022/03/22 04:38:30;;;;;;;12.27;8.98;;;8.50;37.30;;;;;;5010939;28;20207;-83
2022/03/22 04:40:57;;;;;;;11.50;8.73;;;8.50;36.90;;;;;;5011230;28;20508;-83
2022/03/22 04:43:23;;;;;;;13.98;9.55;;;8.50;37.40;;;;;;5007196;28;20138;-84
2022/03/22 04:45:48;;;;;;;12.90;8.80;;;8.50;37.00;;;;;;4999958;28;20088;-82
2022/03/22 04:48:14;;;;;;;13.13;9.13;;;8.50;36.40;;;;;;4999013;28;20137;-83
2022/03/22 04:50:40;;;;;;;18.33;9.57;;;8.50;36.60;;;;;;4999073;28;20042;-82
2022/03/22 04:58:35;;;;;;;13.60;8.40;;;8.60;37.00;;;;;;4994385;28;20053;-87
2022/03/22 05:01:01;;;;;;;14.60;9.07;;;8.60;36.50;;;;;;5010547;28;20065;-86
2022/03/22 05:03:26;;;;;;;13.65;9.27;;;8.60;35.70;;;;;;5001044;28;20030;-88
2022/03/22 05:08:36;;;;;;;11.80;8.68;;;8.60;35.50;;;;;;5015423;28;20053;-88
2022/03/22 05:11:02;;;;;;;13.60;9.30;;;8.60;35.80;;;;;;5012948;28;20026;-88
2022/03/22 05:13:28;;;;;;;15.80;9.32;;;8.60;36.50;;;;;;5002798;28;20391;-85
2022/03/22 05:15:53;;;;;;;23.92;9.73;;;8.60;36.20;;;;;;5007562;28;20465;-83
2022/03/22 05:18:23;;;;;;;11.82;8.20;;;8.70;35.90;;;;;;4998888;28;20046;-83
2022/03/22 05:20:48;;;;;;;14.68;9.13;;;8.70;36.50;;;;;;4992615;28;20722;-83
2022/03/22 05:23:15;;;;;;;12.70;9.18;;;8.70;36.10;;;;;;5008012;28;20129;-85
2022/03/22 05:25:43;;;;;;;14.15;9.43;;;8.70;35.50;;;;;;5007796;28;20525;-87
2022/03/22 05:28:09;;;;;;;16.23;8.80;;;8.70;36.00;;;;;;5005772;28;20044;-85
2022/03/22 05:30:34;;;;;;;13.55;8.32;;;8.70;36.20;;;;;;5007780;28;20117;-85
2022/03/22 05:33:00;;;;;;;14.38;8.70;;;8.90;35.30;;;;;;5006635;28;20038;-86
2022/03/22 05:35:27;;;;;;;13.20;8.15;;;9.00;35.90;;;;;;5001927;28;20038;-83
2022/03/22 05:37:52;;;;;;;11.75;8.32;;;9.00;36.00;;;;;;5003838;28;20038;-83
2022/03/22 05:40:18;;;;;;;11.88;8.43;;;9.00;36.60;;;;;;5006340;28;20125;-85
2022/03/22 05:42:44;;;;;;;16.90;9.10;;;9.00;35.40;;;;;;5008381;28;20371;-84
2022/03/22 05:45:11;;;;;;;12.63;8.32;;;9.10;34.70;;;;;;5001225;28;20061;-84
2022/03/22 05:47:38;;;;;;;14.40;8.85;;;9.20;34.80;;;;;;4998704;28;20124;-84
2022/03/22 05:50:05;;;;;;;14.30;7.97;;;9.10;36.00;;;;;;5017840;28;20034;-84
2022/03/22 05:52:32;;;;;;;13.73;8.65;;;9.20;35.20;;;;;;5005499;28;20085;-83
2022/03/22 05:54:58;;;;;;;15.25;8.13;;;9.20;35.40;;;;;;5006397;28;20034;-83
2022/03/22 05:57:23;;;;;;;16.80;8.40;;;9.30;35.40;;;;;;5008425;28;20038;-83
2022/03/22 05:59:49;;;;;;;15.45;8.88;;;9.20;35.00;;;;;;5009966;28;20066;-82
2022/03/22 06:02:15;;;;;;;12.13;8.43;;;9.30;34.70;;;;;;4998242;28;20113;-86
2022/03/22 06:04:41;;;;;;;13.57;8.18;;;9.30;34.80;;;;;;5009342;28;20108;-84
2022/03/22 06:07:07;;;;;;;17.30;8.68;;;9.30;33.70;;;;;;5012270;28;20040;-82
2022/03/22 06:09:33;;;;;;;13.52;9.32;;;9.30;33.70;;;;;;5007401;28;20034;-81
2022/03/22 06:11:58;;;;;;;14.35;8.82;;;9.30;33.60;;;;;;5000902;28;20053;-82
2022/03/22 06:14:24;;;;;;;21.52;8.00;;;9.20;34.80;;;;;;5006095;28;20073;-86
2022/03/22 06:16:50;;;;;;;10.63;7.68;;;9.20;36.40;;;;;;5002831;28;20030;-82
2022/03/22 06:19:15;;;;;;;12.13;8.20;;;9.30;34.30;;;;;;4998729;28;20042;-89
2022/03/22 06:21:41;;;;;;;11.32;8.90;;;9.30;34.30;;;;;;5004941;28;20076;-88
2022/03/22 06:24:33;;;;;;;16.58;8.30;;;9.40;35.10;;;;;;5009267;28;20065;-82
2022/03/22 06:27:02;;;;;;;11.18;7.65;;;9.50;35.60;;;;;;5015647;28;20072;-88
2022/03/22 06:29:28;;;;;;;13.85;8.30;;;9.50;35.40;;;;;;5012341;28;20042;-87
2022/03/22 06:31:54;;;;;;;15.35;8.07;;;9.60;35.60;;;;;;5025397;28;20087;-86
2022/03/22 06:34:19;;;;;;;12.93;7.97;;;9.70;34.20;;;;;;5025100;28;20379;-85
2022/03/22 06:36:45;;;;;;;12.23;8.73;;;9.70;33.70;;;;;;4998483;28;20082;-86
2022/03/22 06:39:11;;;;;;;14.90;8.02;;;9.70;33.10;;;;;;5020324;28;20478;-86
2022/03/22 06:41:37;;;;;;;15.48;8.75;;;9.70;32.90;;;;;;5014124;28;20034;-86
2022/03/22 06:44:03;;;;;;;11.65;8.10;;;9.70;33.30;;;;;;5016454;28;20429;-86
2022/03/22 06:46:29;;;;;;;13.70;8.35;;;9.80;33.70;;;;;;5006393;28;20049;-86
2022/03/22 06:48:55;;;;;;;12.93;8.13;;;9.90;33.80;;;;;;4996914;28;20038;-87
2022/03/22 06:51:22;;;;;;;16.60;8.98;;;10.00;34.50;;;;;;5003096;28;20499;-86
2022/03/22 06:53:47;;;;;;;15.07;8.38;;;10.00;35.00;;;;;;4997134;28;20129;-86
2022/03/22 06:56:14;;;;;;;18.85;9.60;;;10.20;35.60;;;;;;4998789;28;20061;-86
2022/03/22 06:58:40;;;;;;;16.55;9.38;;;10.20;35.40;;;;;;5003860;28;20066;-86
2022/03/22 07:01:06;;;;;;;21.10;9.32;;;10.20;37.00;;;;;;5005504;28;20037;-87
2022/03/22 07:03:32;;;;;;;16.08;9.23;;;10.20;37.20;;;;;;4999207;28;20073;-86
2022/03/22 07:05:58;;;;;;;15.18;9.00;;;10.30;35.40;;;;;;5005150;28;20026;-85
2022/03/22 07:08:24;;;;;;;14.25;8.55;;;10.30;34.40;;;;;;5009620;28;20384;-84
2022/03/22 07:11:49;;;;;;;12.98;8.30;;;10.50;38.50;;;;;;4980683;28;20525;-79
2022/03/22 07:13:35;;;;;;;17.80;9.60;;;10.60;35.20;;;;;;5003966;28;20026;-79
2022/03/22 07:16:01;;;;;;;11.20;8.52;;;10.60;35.80;;;;;;4983399;28;20188;-79
2022/03/22 07:18:27;;;;;;;13.13;8.35;;;10.60;35.10;;;;;;4996150;28;20042;-79
2022/03/22 07:20:52;;;;;;;14.90;8.95;;;10.80;34.00;;;;;;4977842;28;20034;-84
2022/03/22 07:23:18;;;;;;;13.85;8.52;;;10.80;35.40;;;;;;5003917;28;20038;-83
2022/03/22 07:25:44;;;;;;;16.15;8.57;;;10.90;34.50;;;;;;4994431;28;20045;-82
2022/03/22 07:28:09;;;;;;;12.85;8.60;;;11.00;34.60;;;;;;5010011;28;20057;-84
2022/03/22 07:30:35;;;;;;;13.18;8.63;;;11.10;33.50;;;;;;4986472;28;20039;-84
2022/03/22 07:33:04;;;;;;;16.38;8.20;;;11.20;34.10;;;;;;4985490;28;20052;-85
2022/03/22 07:35:32;;;;;;;14.68;8.23;;;11.30;32.40;;;;;;5001746;28;20101;-83
2022/03/22 07:37:58;;;;;;;16.45;8.30;;;11.30;32.90;;;;;;4991910;28;20076;-81
2022/03/22 07:40:24;;;;;;;19.02;7.88;;;11.40;31.80;;;;;;5005760;28;20057;-82
2022/03/22 07:42:49;;;;;;;12.98;8.77;;;11.50;32.10;;;;;;4995815;28;20104;-83
2022/03/22 07:45:15;;;;;;;10.90;8.02;;;11.60;31.90;;;;;;5007305;28;20096;-82
2022/03/22 07:47:41;;;;;;;11.68;7.90;;;11.70;32.10;;;;;;5005614;28;20545;-84
2022/03/22 07:52:58;;;;;;;15.63;8.60;;;11.90;31.30;;;;;;5006772;28;20100;-83
2022/03/22 07:55:24;;;;;;;15.27;8.63;;;12.00;31.70;;;;;;5001069;28;21982;-83
2022/03/22 07:57:50;;;;;;;16.92;8.50;;;12.10;34.00;;;;;;5011226;28;20483;-85
2022/03/22 08:00:18;;;;;;;13.88;9.02;;;12.20;32.20;;;;;;5003231;28;20040;-82
2022/03/22 08:02:55;;;;;;;11.07;8.10;;;12.30;30.90;;;;;;4988601;28;20162;-83
2022/03/22 08:05:22;;;;;;;12.77;8.70;;;12.40;31.40;;;;;;5001555;28;20037;-83
2022/03/22 08:07:48;;;;;;;15.18;8.82;;;12.60;31.20;;;;;;5002127;28;20046;-83
2022/03/22 08:10:13;;;;;;;14.95;8.15;;;12.70;31.80;;;;;;4981965;28;20044;-83
2022/03/22 08:12:40;;;;;;;10.93;8.15;;;12.80;33.20;;;;;;5001960;28;20112;-83
2022/03/22 08:15:08;;;;;;;11.77;7.95;;;12.90;32.40;;;;;;5006302;28;20037;-83
2022/03/22 08:17:39;;;;;;;12.70;7.70;;;13.00;29.80;;;;;;5008375;28;20042;-82
2022/03/22 08:20:06;;;;;;;14.55;9.02;;;13.10;30.50;;;;;;4998054;28;20033;-83
2022/03/22 08:22:32;;;;;;;10.35;7.32;;;13.20;28.40;;;;;;5011991;28;20046;-86
2022/03/22 08:24:59;;;;;;;13.23;8.95;;;13.30;29.50;;;;;;5000216;28;20027;-86
2022/03/22 08:27:24;;;;;;;12.40;8.63;;;13.40;29.80;;;;;;4990848;28;20034;-84
2022/03/22 08:29:51;;;;;;;12.60;8.82;;;13.50;29.80;;;;;;4988077;28;20488;-85
2022/03/22 08:32:17;;;;;;;17.95;9.57;;;13.60;28.90;;;;;;4988948;28;20033;-86
2022/03/22 08:34:43;;;;;;;13.20;9.38;;;13.70;28.60;;;;;;4982772;28;20046;-86
2022/03/22 08:37:09;;;;;;;12.90;8.90;;;13.80;28.80;;;;;;5005337;28;20048;-86
2022/03/22 08:39:34;;;;;;;13.43;9.15;;;13.80;28.80;;;;;;5014558;28;20030;-84
2022/03/22 08:42:00;;;;;;;14.63;8.65;;;13.90;28.40;;;;;;5011550;28;20041;-85
2022/03/22 08:44:25;;;;;;;35.97;29.08;;;14.00;29.10;;;;;;5017449;28;20069;-85
2022/03/22 08:46:51;;;;;;;23.08;13.55;;;14.10;29.60;;;;;;5011921;28;20100;-85
2022/03/22 08:49:18;;;;;;;19.15;10.82;;;14.30;28.80;;;;;;5013033;28;20049;-86
2022/03/22 08:51:43;;;;;;;14.00;8.57;;;14.30;28.50;;;;;;5013227;28;20065;-85
2022/03/22 08:54:09;;;;;;;11.38;8.52;;;14.50;29.20;;;;;;5009824;28;20038;-86
2022/03/22 08:56:35;;;;;;;10.50;8.25;;;14.60;28.20;;;;;;5013567;28;20161;-86
2022/03/22 08:59:00;;;;;;;13.40;7.78;;;14.70;27.70;;;;;;5013932;28;20093;-87
2022/03/22 09:01:30;;;;;;;17.13;8.63;;;14.90;27.80;;;;;;5022342;28;20037;-86
2022/03/22 09:06:40;;;;;;;14.30;8.27;;;15.00;26.70;;;;;;5016310;28;20048;-82
2022/03/22 09:09:06;;;;;;;10.65;8.55;;;15.10;27.60;;;;;;5019516;28;20394;-82
2022/03/22 09:11:34;;;;;;;11.70;9.18;;;15.20;27.00;;;;;;5008611;28;20045;-84
2022/03/22 09:14:00;;;;;;;11.60;8.88;;;15.30;26.60;;;;;;5019241;28;20035;-83
2022/03/22 09:16:26;;;;;;;10.45;8.38;;;15.40;26.60;;;;;;5018563;28;20045;-83
2022/03/22 09:18:52;;;;;;;12.18;9.25;;;15.60;26.70;;;;;;5025539;28;20033;-83
2022/03/22 09:21:18;;;;;;;16.80;9.45;;;15.70;25.90;;;;;;5009312;28;20037;-83
2022/03/22 09:23:44;;;;;;;15.25;9.27;;;15.80;25.90;;;;;;5023754;28;20048;-83
2022/03/22 09:26:10;;;;;;;15.32;9.10;;;15.90;26.00;;;;;;5023966;28;20125;-85
2022/03/22 09:28:37;;;;;;;17.83;9.18;;;16.00;26.20;;;;;;5019710;28;20038;-86
2022/03/22 09:31:03;;;;;;;13.88;8.82;;;16.20;25.00;;;;;;5018497;28;20036;-85
2022/03/22 09:33:30;;;;;;;12.85;8.60;;;16.20;25.60;;;;;;5006181;28;20102;-87
2022/03/22 09:35:57;;;;;;;13.20;8.60;;;16.30;25.60;;;;;;5007835;28;20041;-86
2022/03/22 09:38:23;;;;;;;11.40;8.43;;;16.50;25.00;;;;;;5018565;28;20033;-86
2022/03/22 09:40:52;;;;;;;11.20;8.40;;;16.60;25.20;;;;;;5012486;28;20072;-83
2022/03/22 09:43:20;;;;;;;12.30;8.23;;;16.80;25.20;;;;;;5005588;28;20042;-82
2022/03/22 09:45:46;;;;;;;12.60;8.98;;;16.90;25.90;;;;;;5012634;28;20165;-86
2022/03/22 09:48:12;;;;;;;14.35;9.23;;;17.10;25.60;;;;;;5004385;28;20496;-87
2022/03/22 09:53:22;;;;;;;16.95;8.85;;;17.30;25.70;;;;;;5008576;28;20509;-85
2022/03/22 09:55:48;;;;;;;16.90;8.93;;;17.40;25.40;;;;;;5017435;28;20034;-86
2022/03/22 09:58:13;;;;;;;12.35;9.32;;;17.40;25.60;;;;;;5017200;28;20116;-86
2022/03/22 10:00:39;;;;;;;12.40;8.85;;;17.30;25.80;;;;;;5011893;28;20508;-85
2022/03/22 10:03:05;;;;;;;15.15;9.13;;;17.40;25.50;;;;;;5025470;28;20053;-86
2022/03/22 10:05:31;;;;;;;14.57;9.02;;;17.50;25.60;;;;;;4997825;28;20050;-81
2022/03/22 10:08:05;;;;;;;11.70;9.18;;;17.70;25.30;;;;;;5017164;28;20457;-81
2022/03/22 10:10:32;;;;;;;12.15;8.85;;;17.70;25.10;;;;;;5007637;28;20461;-81
2022/03/22 10:13:00;;;;;;;15.40;8.95;;;17.70;24.70;;;;;;5009052;28;20034;-82
2022/03/22 10:15:36;;;;;;;12.07;8.90;;;17.80;25.40;;;;;;4978921;28;20037;-82
2022/03/22 10:18:08;;;;;;;12.30;9.32;;;17.90;25.10;;;;;;4997494;28;20092;-81
2022/03/22 12:16:51;;;;;;;12.57;9.13;;;23.70;21.60;;;;;;5054174;23;20111;-81
2022/03/22 12:19:25;;;;;;;12.43;9.38;;;23.50;21.70;;;;;;5043805;28;20033;-88
2022/03/22 12:21:55;;;;;;;12.85;9.20;;;23.30;21.20;;;;;;5039004;28;20029;-80
2022/03/22 12:24:30;;;;;;;;;;;23.20;21.70;;;;;;5035716;28;20413;-78
2022/03/22 12:26:58;;;;;;;15.93;9.90;;;23.30;21.10;;;;;;5032281;28;19905;-87
2022/03/22 12:29:25;;;;;;;10.82;8.70;;;23.40;21.10;;;;;;5024055;28;20465;-79
2022/03/22 12:31:53;;;;;;;10.80;8.95;;;23.40;20.50;;;;;;5035217;28;20101;-87
2022/03/22 12:34:19;;;;;;;13.38;8.65;;;23.60;20.80;;;;;;5053892;28;20033;-87
2022/03/22 12:36:45;;;;;;;14.70;8.82;;;23.70;21.60;;;;;;5052600;28;20108;-78
2022/03/22 12:39:11;;;;;;;13.43;8.30;;;23.90;21.50;;;;;;5037701;28;20045;-87
2022/03/22 12:41:38;;;;;;;25.33;10.77;;;23.80;20.80;;;;;;5035147;28;20045;-78
2022/03/22 12:44:05;;;;;;;10.73;8.63;;;23.70;20.20;;;;;;5034608;28;20045;-86
2022/03/22 12:46:32;;;;;;;12.77;9.02;;;23.70;20.20;;;;;;5030934;28;20138;-86
2022/03/22 12:48:58;;;;;;;18.77;9.43;;;23.40;21.20;;;;;;5052761;28;20033;-86
2022/03/22 12:51:25;;;;;;;14.10;8.90;;;23.50;20.70;;;;;;5054112;28;20047;-87
2022/03/22 12:53:54;;;;;;;14.95;8.77;;;23.70;21.00;;;;;;5055222;28;20039;-86
2022/03/22 12:56:21;;;;;;;13.00;8.30;;;23.50;19.60;;;;;;5044690;28;20114;-86
2022/03/22 12:58:49;;;;;;;11.38;8.70;;;23.10;20.10;;;;;;5050728;28;20108;-87
2022/03/22 13:01:16;;;;;;;19.20;8.98;;;23.30;20.50;;;;;;5052706;28;20037;-86
2022/03/22 13:03:46;;;;;;;9.82;8.40;;;23.30;19.40;;;;;;5040371;28;20038;-86
2022/03/22 13:06:12;;;;;;;13.40;8.15;;;23.20;19.60;;;;;;5054521;28;20128;-88
2022/03/22 13:11:29;;;;;;;14.05;8.48;;;23.50;20.60;;;;;;5039632;28;20028;-88
2022/03/22 13:16:42;;;;;;;10.80;7.47;;;23.40;18.90;;;;;;5043073;28;20125;-85
2022/03/22 13:19:08;;;;;;;12.75;7.60;;;22.80;19.40;;;;;;5037387;28;20496;-81
2022/03/22 13:21:39;;;;;;;8.85;7.60;;;22.30;19.40;;;;;;5052657;28;20487;-81
2022/03/22 13:24:09;;;;;;;11.98;7.43;;;21.80;19.70;;;;;;5024813;28;20042;-82
2022/03/22 13:26:36;;;;;;;11.57;7.53;;;21.10;20.30;;;;;;5019500;28;20062;-81
2022/03/22 13:29:16;;;;;;;14.20;8.45;;;20.90;20.40;;;;;;5037209;28;20037;-81
2022/03/22 13:32:04;;;;;;;14.38;8.25;;;20.20;21.00;;;;;;5024327;28;20075;-81
2022/03/22 13:34:34;;;;;;;12.00;7.88;;;19.90;21.80;;;;;;5046689;28;20045;-81
2022/03/22 13:37:19;;;;;;;11.27;8.20;;;19.80;21.50;;;;;;5049960;28;20056;-80
2022/03/22 13:39:50;;;;;;;10.50;7.88;;;19.40;21.70;;;;;;5035967;28;20057;-81
2022/03/22 13:42:23;;;;;;;11.57;7.30;;;19.20;21.10;;;;;;5022556;28;20055;-82
2022/03/22 13:45:00;;;;;;;9.48;7.35;;;19.20;21.80;;;;;;5027139;28;20061;-81
2022/03/22 13:47:27;;;;;;;11.75;7.93;;;19.10;22.10;;;;;;5052741;28;20064;-85
2022/03/22 13:49:53;;;;;;;10.88;7.88;;;19.00;22.20;;;;;;5031774;28;20129;-85
2022/03/22 13:52:30;;;;;;;12.95;7.47;;;18.80;21.90;;;;;;5049874;28;20460;-85
2022/03/22 13:54:57;;;;;;;11.40;7.90;;;18.80;22.60;;;;;;5046661;28;20025;-84
2022/03/22 13:57:28;;;;;;;9.70;7.60;;;18.80;22.50;;;;;;5046977;28;20166;-85
2022/03/22 13:59:58;;;;;;;10.52;8.00;;;18.80;23.50;;;;;;5047663;28;20033;-85
2022/03/22 14:02:24;;;;;;;9.27;8.20;;;18.50;23.50;;;;;;5026925;28;20040;-85
2022/03/22 14:04:50;;;;;;;8.98;7.30;;;18.40;22.50;;;;;;5042328;28;20393;-85
2022/03/22 14:07:16;;;;;;;12.07;8.02;;;18.40;23.10;;;;;;5051615;28;20044;-87
2022/03/22 14:09:44;;;;;;;13.60;8.02;;;18.40;23.80;;;;;;5027647;28;20064;-85
2022/03/22 14:12:10;;;;;;;15.18;8.15;;;18.40;23.50;;;;;;5051076;28;20083;-85
2022/03/22 14:14:35;;;;;;;14.50;8.00;;;18.40;22.70;;;;;;5049005;28;20108;-84
2022/03/22 14:17:01;;;;;;;12.23;8.25;;;18.30;22.80;;;;;;5048849;28;20469;-85
2022/03/22 14:19:27;;;;;;;10.55;7.50;;;18.20;22.80;;;;;;5049610;28;20401;-85
2022/03/22 14:21:53;;;;;;;9.63;7.47;;;18.20;23.60;;;;;;5028619;28;20040;-84
2022/03/22 14:24:18;;;;;;;10.77;8.00;;;18.20;22.90;;;;;;5035242;28;20044;-85
2022/03/22 14:26:44;;;;;;;12.43;7.80;;;18.10;22.50;;;;;;5033323;28;20096;-84
2022/03/22 14:29:10;;;;;;;13.35;8.43;;;18.10;22.90;;;;;;5048925;28;20039;-84
2022/03/22 14:31:36;;;;;;;14.38;7.68;;;18.10;23.40;;;;;;5027979;28;20021;-85
2022/03/22 14:34:02;;;;;;;10.25;7.68;;;18.00;24.30;;;;;;5029399;28;20430;-83
2022/03/22 14:36:28;;;;;;;16.73;8.07;;;17.90;23.10;;;;;;5048514;28;20033;-84
2022/03/22 14:38:53;;;;;;;11.15;8.48;;;18.00;23.60;;;;;;5045789;28;20100;-85
2022/03/22 14:41:25;;;;;;;10.82;6.90;;;17.80;23.10;;;;;;5049091;28;20116;-83
2022/03/22 14:43:53;;;;;;;11.70;7.72;;;17.80;23.50;;;;;;5041569;28;20392;-83
2022/03/22 14:46:19;;;;;;;8.07;7.15;;;17.80;23.20;;;;;;5048834;28;20089;-83
2022/03/22 14:48:49;;;;;;;13.60;7.80;;;17.80;23.50;;;;;;5043418;28;20029;-84
2022/03/22 14:54:02;;;;;;;13.80;8.15;;;17.90;23.10;;;;;;5054636;28;20099;-85
2022/03/22 14:59:12;;;;;;;11.10;7.72;;;17.80;23.50;;;;;;5047127;28;20060;-81
2022/03/22 15:01:38;;;;;;;12.73;8.05;;;17.70;23.10;;;;;;5053406;28;20041;-80
2022/03/22 15:04:04;;;;;;;11.77;8.32;;;17.70;23.80;;;;;;5054228;28;20048;-80
2022/03/22 15:06:31;;;;;;;9.55;6.82;;;17.60;23.40;;;;;;5052611;28;20091;-79
2022/03/22 15:08:57;;;;;;;136.00;115.50;;;17.60;23.40;;;;;;5040942;28;20144;-79
2022/03/22 15:11:24;;;;;;;14.75;12.25;;;17.60;23.30;;;;;;5049841;28;20418;-80
2022/03/22 15:13:51;;;;;;;13.38;7.97;;;17.40;22.80;;;;;;5039851;28;20109;-80
2022/03/22 15:16:20;;;;;;;8.25;7.28;;;17.40;23.60;;;;;;5038079;28;20658;-80
2022/03/22 15:18:48;;;;;;;12.75;7.93;;;17.40;24.20;;;;;;5024156;28;20052;-80
2022/03/22 15:21:14;;;;;;;12.10;7.32;;;17.50;22.90;;;;;;5037980;28;20045;-80